sensor_id;sensor_type;location;lat;lon;timestamp;temperature;humidity
75170;SHT31;63749;49.186;9.222;2023-04-30T00:02:00;11.95;78.01
75170;SHT31;63749;49.186;9.222;2023-04-30T00:04:25;11.91;77.95
75170;SHT31;63749;49.186;9.222;2023-04-30T00:06:50;11.97;78.10
75170;SHT31;63749;49.186;9.222;2023-04-30T00:09:16;11.93;77.95
75170;SHT31;63749;49.186;9.222;2023-04-30T00:11:41;11.89;78.00
75170;SHT31;63749;49.186;9.222;2023-04-30T00:14:06;11.84;78.08
75170;SHT31;63749;49.186;9.222;2023-04-30T00:16:32;11.83;78.14
75170;SHT31;63749;49.186;9.222;2023-04-30T00:18:57;11.81;77.90
75170;SHT31;63749;49.186;9.222;2023-04-30T00:21:22;11.87;78.02
75170;SHT31;63749;49.186;9.222;2023-04-30T00:23:48;11.83;78.19
75170;SHT31;63749;49.186;9.222;2023-04-30T00:26:13;11.86;77.79
75170;SHT31;63749;49.186;9.222;2023-04-30T00:28:39;11.81;78.19
75170;SHT31;63749;49.186;9.222;2023-04-30T00:31:04;11.86;78.03
75170;SHT31;63749;49.186;9.222;2023-04-30T00:33:33;11.86;78.00
75170;SHT31;63749;49.186;9.222;2023-04-30T00:35:58;11.89;77.74
75170;SHT31;63749;49.186;9.222;2023-04-30T00:38:24;11.93;77.41
75170;SHT31;63749;49.186;9.222;2023-04-30T00:40:49;11.86;77.86
75170;SHT31;63749;49.186;9.222;2023-04-30T00:43:14;11.80;77.87
75170;SHT31;63749;49.186;9.222;2023-04-30T00:45:40;11.77;77.92
75170;SHT31;63749;49.186;9.222;2023-04-30T00:48:05;11.77;77.96
75170;SHT31;63749;49.186;9.222;2023-04-30T00:50:31;11.76;78.11
75170;SHT31;63749;49.186;9.222;2023-04-30T00:52:59;11.73;78.46
75170;SHT31;63749;49.186;9.222;2023-04-30T00:55:25;11.74;77.89
75170;SHT31;63749;49.186;9.222;2023-04-30T00:57:51;11.71;78.10
75170;SHT31;63749;49.186;9.222;2023-04-30T01:00:16;11.71;77.54
75170;SHT31;63749;49.186;9.222;2023-04-30T01:02:42;11.76;77.73
75170;SHT31;63749;49.186;9.222;2023-04-30T01:05:08;11.70;77.06
75170;SHT31;63749;49.186;9.222;2023-04-30T01:07:34;11.67;77.36
75170;SHT31;63749;49.186;9.222;2023-04-30T01:10:00;11.66;77.51
75170;SHT31;63749;49.186;9.222;2023-04-30T01:18:22;11.65;76.90
75170;SHT31;63749;49.186;9.222;2023-04-30T01:20:58;11.69;77.08
75170;SHT31;63749;49.186;9.222;2023-04-30T01:26:05;11.67;76.99
75170;SHT31;63749;49.186;9.222;2023-04-30T01:28:35;11.62;76.97
75170;SHT31;63749;49.186;9.222;2023-04-30T01:31:00;11.65;76.95
75170;SHT31;63749;49.186;9.222;2023-04-30T01:33:26;11.65;77.27
75170;SHT31;63749;49.186;9.222;2023-04-30T01:42:09;11.50;77.68
75170;SHT31;63749;49.186;9.222;2023-04-30T01:45:02;11.53;77.20
75170;SHT31;63749;49.186;9.222;2023-04-30T01:47:51;11.53;77.01
75170;SHT31;63749;49.186;9.222;2023-04-30T01:52:46;11.55;77.05
75170;SHT31;63749;49.186;9.222;2023-04-30T01:55:19;11.55;77.28
75170;SHT31;63749;49.186;9.222;2023-04-30T01:57:55;11.55;77.08
75170;SHT31;63749;49.186;9.222;2023-04-30T02:00:21;11.58;76.58
75170;SHT31;63749;49.186;9.222;2023-04-30T02:02:47;11.59;76.43
75170;SHT31;63749;49.186;9.222;2023-04-30T02:05:13;11.58;76.82
75170;SHT31;63749;49.186;9.222;2023-04-30T02:07:39;11.59;76.27
75170;SHT31;63749;49.186;9.222;2023-04-30T02:10:06;11.58;76.48
75170;SHT31;63749;49.186;9.222;2023-04-30T02:12:32;11.53;77.13
75170;SHT31;63749;49.186;9.222;2023-04-30T02:14:57;11.49;77.59
75170;SHT31;63749;49.186;9.222;2023-04-30T02:17:23;11.47;77.10
75170;SHT31;63749;49.186;9.222;2023-04-30T02:19:48;11.52;77.41
75170;SHT31;63749;49.186;9.222;2023-04-30T02:22:13;11.50;77.44
75170;SHT31;63749;49.186;9.222;2023-04-30T02:24:38;11.47;77.14
75170;SHT31;63749;49.186;9.222;2023-04-30T02:27:04;11.50;77.11
75170;SHT31;63749;49.186;9.222;2023-04-30T02:29:29;11.49;77.14
75170;SHT31;63749;49.186;9.222;2023-04-30T02:31:57;11.52;77.21
75170;SHT31;63749;49.186;9.222;2023-04-30T02:34:23;11.52;77.03
75170;SHT31;63749;49.186;9.222;2023-04-30T02:36:48;11.49;77.38
75170;SHT31;63749;49.186;9.222;2023-04-30T02:39:13;11.46;77.25
75170;SHT31;63749;49.186;9.222;2023-04-30T02:41:38;11.44;77.56
75170;SHT31;63749;49.186;9.222;2023-04-30T02:44:04;11.43;77.51
75170;SHT31;63749;49.186;9.222;2023-04-30T02:46:29;11.42;77.63
75170;SHT31;63749;49.186;9.222;2023-04-30T02:48:54;11.43;76.99
75170;SHT31;63749;49.186;9.222;2023-04-30T02:51:20;11.44;77.13
75170;SHT31;63749;49.186;9.222;2023-04-30T02:53:45;11.49;77.40
75170;SHT31;63749;49.186;9.222;2023-04-30T02:56:10;11.40;77.99
75170;SHT31;63749;49.186;9.222;2023-04-30T02:58:36;11.36;78.32
75170;SHT31;63749;49.186;9.222;2023-04-30T03:01:02;11.29;78.91
75170;SHT31;63749;49.186;9.222;2023-04-30T03:03:27;11.28;78.71
75170;SHT31;63749;49.186;9.222;2023-04-30T03:05:53;11.26;78.40
75170;SHT31;63749;49.186;9.222;2023-04-30T03:08:20;11.28;78.06
75170;SHT31;63749;49.186;9.222;2023-04-30T03:10:46;11.28;78.15
75170;SHT31;63749;49.186;9.222;2023-04-30T03:13:11;11.23;78.00
75170;SHT31;63749;49.186;9.222;2023-04-30T03:15:36;11.29;78.01
75170;SHT31;63749;49.186;9.222;2023-04-30T03:18:02;11.38;77.88
75170;SHT31;63749;49.186;9.222;2023-04-30T03:20:28;11.38;77.78
75170;SHT31;63749;49.186;9.222;2023-04-30T03:22:53;11.30;78.11
75170;SHT31;63749;49.186;9.222;2023-04-30T03:25:19;11.28;78.36
75170;SHT31;63749;49.186;9.222;2023-04-30T03:27:44;11.21;78.39
75170;SHT31;63749;49.186;9.222;2023-04-30T03:30:09;11.23;78.35
75170;SHT31;63749;49.186;9.222;2023-04-30T03:32:35;11.23;78.25
75170;SHT31;63749;49.186;9.222;2023-04-30T03:35:01;11.22;79.24
75170;SHT31;63749;49.186;9.222;2023-04-30T03:37:27;11.18;78.84
75170;SHT31;63749;49.186;9.222;2023-04-30T03:39:52;11.18;79.14
75170;SHT31;63749;49.186;9.222;2023-04-30T03:42:17;11.15;78.82
75170;SHT31;63749;49.186;9.222;2023-04-30T03:44:43;11.15;78.87
75170;SHT31;63749;49.186;9.222;2023-04-30T03:47:08;11.18;78.71
75170;SHT31;63749;49.186;9.222;2023-04-30T03:49:33;11.19;78.55
75170;SHT31;63749;49.186;9.222;2023-04-30T03:51:59;11.16;78.21
75170;SHT31;63749;49.186;9.222;2023-04-30T03:54:25;11.21;78.61
75170;SHT31;63749;49.186;9.222;2023-04-30T03:56:50;11.18;78.43
75170;SHT31;63749;49.186;9.222;2023-04-30T03:59:16;11.22;78.31
75170;SHT31;63749;49.186;9.222;2023-04-30T04:01:41;11.21;78.57
75170;SHT31;63749;49.186;9.222;2023-04-30T04:04:07;11.21;78.95
75170;SHT31;63749;49.186;9.222;2023-04-30T04:06:33;11.19;78.82
75170;SHT31;63749;49.186;9.222;2023-04-30T04:08:58;11.15;78.91
75170;SHT31;63749;49.186;9.222;2023-04-30T04:11:24;11.15;79.21
75170;SHT31;63749;49.186;9.222;2023-04-30T04:13:49;11.15;78.87
75170;SHT31;63749;49.186;9.222;2023-04-30T04:16:15;11.14;79.17
75170;SHT31;63749;49.186;9.222;2023-04-30T04:18:40;11.14;79.38
75170;SHT31;63749;49.186;9.222;2023-04-30T04:21:05;11.07;79.64
75170;SHT31;63749;49.186;9.222;2023-04-30T04:23:31;11.07;79.83
75170;SHT31;63749;49.186;9.222;2023-04-30T04:25:57;11.05;80.06
75170;SHT31;63749;49.186;9.222;2023-04-30T04:28:22;11.08;79.83
75170;SHT31;63749;49.186;9.222;2023-04-30T04:30:48;11.09;80.18
75170;SHT31;63749;49.186;9.222;2023-04-30T04:33:13;11.08;79.91
75170;SHT31;63749;49.186;9.222;2023-04-30T04:35:38;11.09;79.79
75170;SHT31;63749;49.186;9.222;2023-04-30T04:38:05;11.09;80.01
75170;SHT31;63749;49.186;9.222;2023-04-30T04:40:31;11.16;79.89
75170;SHT31;63749;49.186;9.222;2023-04-30T04:42:56;11.18;79.48
75170;SHT31;63749;49.186;9.222;2023-04-30T04:45:22;11.19;79.29
75170;SHT31;63749;49.186;9.222;2023-04-30T04:47:48;11.19;79.81
75170;SHT31;63749;49.186;9.222;2023-04-30T04:50:13;11.25;79.43
75170;SHT31;63749;49.186;9.222;2023-04-30T04:52:39;11.30;78.74
75170;SHT31;63749;49.186;9.222;2023-04-30T04:55:05;11.38;79.31
75170;SHT31;63749;49.186;9.222;2023-04-30T04:57:31;11.43;78.24
75170;SHT31;63749;49.186;9.222;2023-04-30T04:59:57;11.53;78.13
75170;SHT31;63749;49.186;9.222;2023-04-30T05:02:22;11.69;78.21
75170;SHT31;63749;49.186;9.222;2023-04-30T05:04:48;11.66;77.87
75170;SHT31;63749;49.186;9.222;2023-04-30T05:07:17;11.67;77.61
75170;SHT31;63749;49.186;9.222;2023-04-30T05:09:44;11.77;77.45
75170;SHT31;63749;49.186;9.222;2023-04-30T05:12:10;11.94;76.54
75170;SHT31;63749;49.186;9.222;2023-04-30T05:14:36;12.37;80.00
75170;SHT31;63749;49.186;9.222;2023-04-30T05:17:01;12.45;75.49
75170;SHT31;63749;49.186;9.222;2023-04-30T05:19:27;12.41;75.48
75170;SHT31;63749;49.186;9.222;2023-04-30T05:21:52;12.35;75.09
75170;SHT31;63749;49.186;9.222;2023-04-30T05:24:17;12.38;75.58
75170;SHT31;63749;49.186;9.222;2023-04-30T05:26:43;12.34;75.74
75170;SHT31;63749;49.186;9.222;2023-04-30T05:29:08;12.46;76.60
75170;SHT31;63749;49.186;9.222;2023-04-30T05:31:35;12.55;75.16
75170;SHT31;63749;49.186;9.222;2023-04-30T05:34:01;12.52;76.37
75170;SHT31;63749;49.186;9.222;2023-04-30T05:36:26;12.52;74.37
75170;SHT31;63749;49.186;9.222;2023-04-30T05:38:52;12.69;74.81
75170;SHT31;63749;49.186;9.222;2023-04-30T05:41:18;12.78;74.64
75170;SHT31;63749;49.186;9.222;2023-04-30T05:43:43;12.95;73.49
75170;SHT31;63749;49.186;9.222;2023-04-30T05:46:08;12.83;73.52
75170;SHT31;63749;49.186;9.222;2023-04-30T05:48:34;12.93;73.73
75170;SHT31;63749;49.186;9.222;2023-04-30T05:51:00;12.97;73.31
75170;SHT31;63749;49.186;9.222;2023-04-30T05:53:25;12.87;73.69
75170;SHT31;63749;49.186;9.222;2023-04-30T05:55:51;13.11;75.04
75170;SHT31;63749;49.186;9.222;2023-04-30T05:58:16;13.40;72.35
75170;SHT31;63749;49.186;9.222;2023-04-30T06:00:41;13.21;72.72
75170;SHT31;63749;49.186;9.222;2023-04-30T06:03:07;13.10;73.12
75170;SHT31;63749;49.186;9.222;2023-04-30T06:05:32;13.02;72.63
75170;SHT31;63749;49.186;9.222;2023-04-30T06:07:57;13.07;72.74
75170;SHT31;63749;49.186;9.222;2023-04-30T06:10:23;13.11;72.01
75170;SHT31;63749;49.186;9.222;2023-04-30T06:12:48;13.04;72.69
75170;SHT31;63749;49.186;9.222;2023-04-30T06:15:13;12.97;72.53
75170;SHT31;63749;49.186;9.222;2023-04-30T06:17:39;12.93;73.11
75170;SHT31;63749;49.186;9.222;2023-04-30T06:20:05;12.83;72.90
75170;SHT31;63749;49.186;9.222;2023-04-30T06:22:32;12.95;73.59
75170;SHT31;63749;49.186;9.222;2023-04-30T06:24:57;12.99;74.18
75170;SHT31;63749;49.186;9.222;2023-04-30T06:27:24;13.02;73.39
75170;SHT31;63749;49.186;9.222;2023-04-30T06:29:52;13.11;73.18
75170;SHT31;63749;49.186;9.222;2023-04-30T06:32:17;13.17;72.46
75170;SHT31;63749;49.186;9.222;2023-04-30T06:34:43;13.33;72.42
75170;SHT31;63749;49.186;9.222;2023-04-30T06:37:08;13.34;72.51
75170;SHT31;63749;49.186;9.222;2023-04-30T06:39:33;13.30;71.67
75170;SHT31;63749;49.186;9.222;2023-04-30T06:41:58;13.53;71.80
75170;SHT31;63749;49.186;9.222;2023-04-30T06:44:24;13.58;71.04
75170;SHT31;63749;49.186;9.222;2023-04-30T06:46:49;13.51;71.18
75170;SHT31;63749;49.186;9.222;2023-04-30T06:49:14;13.55;70.68
75170;SHT31;63749;49.186;9.222;2023-04-30T06:51:40;13.75;70.25
75170;SHT31;63749;49.186;9.222;2023-04-30T06:54:05;13.81;69.89
75170;SHT31;63749;49.186;9.222;2023-04-30T06:56:31;14.01;70.05
75170;SHT31;63749;49.186;9.222;2023-04-30T06:58:56;13.78;69.07
75170;SHT31;63749;49.186;9.222;2023-04-30T07:01:22;13.78;68.70
75170;SHT31;63749;49.186;9.222;2023-04-30T07:03:47;13.85;68.47
75170;SHT31;63749;49.186;9.222;2023-04-30T07:06:12;14.05;67.77
75170;SHT31;63749;49.186;9.222;2023-04-30T07:08:38;14.19;68.18
75170;SHT31;63749;49.186;9.222;2023-04-30T07:11:05;14.26;67.66
75170;SHT31;63749;49.186;9.222;2023-04-30T07:13:31;14.22;67.56
75170;SHT31;63749;49.186;9.222;2023-04-30T07:15:56;14.22;67.68
75170;SHT31;63749;49.186;9.222;2023-04-30T07:18:22;14.20;68.62
75170;SHT31;63749;49.186;9.222;2023-04-30T07:20:47;14.26;67.79
75170;SHT31;63749;49.186;9.222;2023-04-30T07:23:13;14.44;67.54
75170;SHT31;63749;49.186;9.222;2023-04-30T07:25:38;14.71;67.17
75170;SHT31;63749;49.186;9.222;2023-04-30T07:28:03;14.53;66.45
75170;SHT31;63749;49.186;9.222;2023-04-30T07:30:29;14.57;65.89
75170;SHT31;63749;49.186;9.222;2023-04-30T07:32:55;14.74;66.88
75170;SHT31;63749;49.186;9.222;2023-04-30T07:35:20;14.88;66.75
75170;SHT31;63749;49.186;9.222;2023-04-30T07:37:45;14.95;66.20
75170;SHT31;63749;49.186;9.222;2023-04-30T07:40:11;14.91;66.73
75170;SHT31;63749;49.186;9.222;2023-04-30T07:42:40;14.94;64.59
75170;SHT31;63749;49.186;9.222;2023-04-30T07:45:06;14.74;65.42
75170;SHT31;63749;49.186;9.222;2023-04-30T07:47:32;14.83;65.60
75170;SHT31;63749;49.186;9.222;2023-04-30T07:49:57;14.75;65.55
75170;SHT31;63749;49.186;9.222;2023-04-30T07:52:22;15.06;64.75
75170;SHT31;63749;49.186;9.222;2023-04-30T07:54:48;15.21;63.45
75170;SHT31;63749;49.186;9.222;2023-04-30T07:57:14;15.28;64.27
75170;SHT31;63749;49.186;9.222;2023-04-30T07:59:39;15.42;63.39
75170;SHT31;63749;49.186;9.222;2023-04-30T08:02:04;15.57;63.20
75170;SHT31;63749;49.186;9.222;2023-04-30T08:04:30;15.64;63.63
75170;SHT31;63749;49.186;9.222;2023-04-30T08:06:55;15.66;62.56
75170;SHT31;63749;49.186;9.222;2023-04-30T08:09:21;15.36;63.11
75170;SHT31;63749;49.186;9.222;2023-04-30T08:11:46;15.56;62.08
75170;SHT31;63749;49.186;9.222;2023-04-30T08:14:11;15.79;62.47
75170;SHT31;63749;49.186;9.222;2023-04-30T08:16:36;15.87;62.41
75170;SHT31;63749;49.186;9.222;2023-04-30T08:19:02;16.21;62.13
75170;SHT31;63749;49.186;9.222;2023-04-30T08:21:28;16.42;60.77
75170;SHT31;63749;49.186;9.222;2023-04-30T08:23:53;16.56;59.54
75170;SHT31;63749;49.186;9.222;2023-04-30T08:26:19;16.79;58.15
75170;SHT31;63749;49.186;9.222;2023-04-30T08:28:45;16.92;56.75
75170;SHT31;63749;49.186;9.222;2023-04-30T08:31:11;16.63;57.88
75170;SHT31;63749;49.186;9.222;2023-04-30T08:33:36;16.49;58.34
75170;SHT31;63749;49.186;9.222;2023-04-30T08:36:02;16.75;59.35
75170;SHT31;63749;49.186;9.222;2023-04-30T08:38:27;16.92;58.43
75170;SHT31;63749;49.186;9.222;2023-04-30T08:41:04;17.09;56.89
75170;SHT31;63749;49.186;9.222;2023-04-30T08:43:33;16.99;56.52
75170;SHT31;63749;49.186;9.222;2023-04-30T08:45:59;16.82;55.39
75170;SHT31;63749;49.186;9.222;2023-04-30T08:48:26;16.72;54.58
75170;SHT31;63749;49.186;9.222;2023-04-30T08:50:52;16.99;55.07
75170;SHT31;63749;49.186;9.222;2023-04-30T08:53:18;17.41;53.46
75170;SHT31;63749;49.186;9.222;2023-04-30T08:55:46;17.42;52.87
75170;SHT31;63749;49.186;9.222;2023-04-30T08:58:11;17.28;51.66
75170;SHT31;63749;49.186;9.222;2023-04-30T09:00:37;17.57;52.54
75170;SHT31;63749;49.186;9.222;2023-04-30T09:03:04;18.34;51.39
75170;SHT31;63749;49.186;9.222;2023-04-30T09:05:29;17.99;49.83
75170;SHT31;63749;49.186;9.222;2023-04-30T09:07:55;18.47;47.18
75170;SHT31;63749;49.186;9.222;2023-04-30T09:10:21;18.22;44.80
75170;SHT31;63749;49.186;9.222;2023-04-30T09:13:08;18.46;46.15
75170;SHT31;63749;49.186;9.222;2023-04-30T09:15:37;18.61;44.79
75170;SHT31;63749;49.186;9.222;2023-04-30T09:18:12;18.47;45.52
75170;SHT31;63749;49.186;9.222;2023-04-30T09:20:54;18.64;44.69
75170;SHT31;63749;49.186;9.222;2023-04-30T09:23:20;18.84;45.12
75170;SHT31;63749;49.186;9.222;2023-04-30T09:25:45;19.60;44.56
75170;SHT31;63749;49.186;9.222;2023-04-30T09:28:12;19.23;43.34
75170;SHT31;63749;49.186;9.222;2023-04-30T09:30:41;19.07;44.05
75170;SHT31;63749;49.186;9.222;2023-04-30T09:33:07;19.45;43.78
75170;SHT31;63749;49.186;9.222;2023-04-30T09:35:37;19.42;43.52
75170;SHT31;63749;49.186;9.222;2023-04-30T09:38:03;18.92;41.46
75170;SHT31;63749;49.186;9.222;2023-04-30T09:40:39;19.40;42.47
75170;SHT31;63749;49.186;9.222;2023-04-30T09:43:05;19.26;42.19
75170;SHT31;63749;49.186;9.222;2023-04-30T09:45:39;19.59;42.43
75170;SHT31;63749;49.186;9.222;2023-04-30T09:48:05;19.33;43.33
75170;SHT31;63749;49.186;9.222;2023-04-30T09:50:39;19.32;42.19
75170;SHT31;63749;49.186;9.222;2023-04-30T09:53:08;18.83;43.97
75170;SHT31;63749;49.186;9.222;2023-04-30T09:55:35;18.67;44.10
75170;SHT31;63749;49.186;9.222;2023-04-30T09:58:05;18.57;43.56
75170;SHT31;63749;49.186;9.222;2023-04-30T10:00:35;18.51;43.80
75170;SHT31;63749;49.186;9.222;2023-04-30T10:03:07;18.72;45.04
75170;SHT31;63749;49.186;9.222;2023-04-30T10:05:50;18.53;44.65
75170;SHT31;63749;49.186;9.222;2023-04-30T10:08:31;18.77;44.94
75170;SHT31;63749;49.186;9.222;2023-04-30T10:11:02;18.77;44.39
75170;SHT31;63749;49.186;9.222;2023-04-30T10:13:30;18.97;44.62
75170;SHT31;63749;49.186;9.222;2023-04-30T10:15:58;18.80;43.74
75170;SHT31;63749;49.186;9.222;2023-04-30T10:18:39;18.65;43.57
75170;SHT31;63749;49.186;9.222;2023-04-30T10:21:08;18.91;44.66
75170;SHT31;63749;49.186;9.222;2023-04-30T10:23:37;18.83;43.99
75170;SHT31;63749;49.186;9.222;2023-04-30T10:26:09;18.99;43.18
75170;SHT31;63749;49.186;9.222;2023-04-30T10:28:36;18.75;43.20
75170;SHT31;63749;49.186;9.222;2023-04-30T10:31:02;18.51;43.87
75170;SHT31;63749;49.186;9.222;2023-04-30T10:33:47;19.12;44.32
75170;SHT31;63749;49.186;9.222;2023-04-30T10:36:22;19.25;41.31
75170;SHT31;63749;49.186;9.222;2023-04-30T10:38:49;18.78;42.34
75170;SHT31;63749;49.186;9.222;2023-04-30T10:41:14;19.30;42.33
75170;SHT31;63749;49.186;9.222;2023-04-30T10:43:45;19.26;44.06
75170;SHT31;63749;49.186;9.222;2023-04-30T10:46:11;19.57;43.65
75170;SHT31;63749;49.186;9.222;2023-04-30T10:48:45;19.73;43.41
75170;SHT31;63749;49.186;9.222;2023-04-30T10:51:11;20.13;42.93
75170;SHT31;63749;49.186;9.222;2023-04-30T10:53:36;20.39;42.66
75170;SHT31;63749;49.186;9.222;2023-04-30T10:56:04;20.71;41.11
75170;SHT31;63749;49.186;9.222;2023-04-30T10:58:38;20.76;41.58
75170;SHT31;63749;49.186;9.222;2023-04-30T11:01:07;20.80;42.13
75170;SHT31;63749;49.186;9.222;2023-04-30T11:03:33;20.62;40.58
75170;SHT31;63749;49.186;9.222;2023-04-30T11:06:00;20.27;40.75
75170;SHT31;63749;49.186;9.222;2023-04-30T11:08:33;20.00;40.65
75170;SHT31;63749;49.186;9.222;2023-04-30T11:10:59;19.60;42.26
75170;SHT31;63749;49.186;9.222;2023-04-30T11:13:26;19.39;42.43
75170;SHT31;63749;49.186;9.222;2023-04-30T11:15:52;19.33;43.00
75170;SHT31;63749;49.186;9.222;2023-04-30T11:18:18;19.47;43.80
75170;SHT31;63749;49.186;9.222;2023-04-30T11:20:49;19.47;43.40
75170;SHT31;63749;49.186;9.222;2023-04-30T11:23:16;19.30;43.07
75170;SHT31;63749;49.186;9.222;2023-04-30T11:25:46;19.45;42.83
75170;SHT31;63749;49.186;9.222;2023-04-30T11:30:41;19.52;42.85
75170;SHT31;63749;49.186;9.222;2023-04-30T11:33:06;19.62;41.01
75170;SHT31;63749;49.186;9.222;2023-04-30T11:35:32;19.83;42.46
75170;SHT31;63749;49.186;9.222;2023-04-30T11:37:58;20.04;41.66
75170;SHT31;63749;49.186;9.222;2023-04-30T11:40:25;19.90;41.53
75170;SHT31;63749;49.186;9.222;2023-04-30T11:42:51;19.90;41.55
75170;SHT31;63749;49.186;9.222;2023-04-30T11:45:16;19.88;39.73
75170;SHT31;63749;49.186;9.222;2023-04-30T11:47:48;19.66;40.73
75170;SHT31;63749;49.186;9.222;2023-04-30T11:50:21;19.30;42.44
75170;SHT31;63749;49.186;9.222;2023-04-30T11:52:53;19.09;43.47
75170;SHT31;63749;49.186;9.222;2023-04-30T11:55:21;19.09;42.53
75170;SHT31;63749;49.186;9.222;2023-04-30T11:57:48;19.63;42.35
75170;SHT31;63749;49.186;9.222;2023-04-30T12:00:18;19.47;42.63
75170;SHT31;63749;49.186;9.222;2023-04-30T12:02:46;19.43;42.27
75170;SHT31;63749;49.186;9.222;2023-04-30T12:05:16;19.91;41.45
75170;SHT31;63749;49.186;9.222;2023-04-30T12:07:46;19.70;41.07
75170;SHT31;63749;49.186;9.222;2023-04-30T12:10:12;19.39;41.61
75170;SHT31;63749;49.186;9.222;2023-04-30T12:12:37;19.86;41.74
75170;SHT31;63749;49.186;9.222;2023-04-30T12:15:12;19.83;42.08
75170;SHT31;63749;49.186;9.222;2023-04-30T12:17:37;20.59;40.14
75170;SHT31;63749;49.186;9.222;2023-04-30T12:20:03;20.83;40.71
75170;SHT31;63749;49.186;9.222;2023-04-30T12:22:29;21.43;39.22
75170;SHT31;63749;49.186;9.222;2023-04-30T12:24:55;21.91;38.24
75170;SHT31;63749;49.186;9.222;2023-04-30T12:27:21;21.77;37.25
75170;SHT31;63749;49.186;9.222;2023-04-30T12:29:47;22.91;36.10
75170;SHT31;63749;49.186;9.222;2023-04-30T12:32:15;23.12;37.09
75170;SHT31;63749;49.186;9.222;2023-04-30T12:34:43;23.01;35.10
75170;SHT31;63749;49.186;9.222;2023-04-30T12:37:08;23.62;35.03
75170;SHT31;63749;49.186;9.222;2023-04-30T12:39:34;23.69;34.18
75170;SHT31;63749;49.186;9.222;2023-04-30T12:42:00;23.02;36.25
75170;SHT31;63749;49.186;9.222;2023-04-30T12:44:26;22.46;36.50
75170;SHT31;63749;49.186;9.222;2023-04-30T12:46:56;22.87;36.03
75170;SHT31;63749;49.186;9.222;2023-04-30T12:49:33;23.90;35.40
75170;SHT31;63749;49.186;9.222;2023-04-30T12:52:09;23.49;33.56
75170;SHT31;63749;49.186;9.222;2023-04-30T12:54:37;25.09;32.79
75170;SHT31;63749;49.186;9.222;2023-04-30T12:57:04;25.98;31.26
75170;SHT31;63749;49.186;9.222;2023-04-30T12:59:35;26.69;29.93
75170;SHT31;63749;49.186;9.222;2023-04-30T13:02:11;25.44;31.01
75170;SHT31;63749;49.186;9.222;2023-04-30T13:04:39;25.91;30.66
75170;SHT31;63749;49.186;9.222;2023-04-30T13:07:05;25.96;31.74
75170;SHT31;63749;49.186;9.222;2023-04-30T13:09:32;26.29;31.48
75170;SHT31;63749;49.186;9.222;2023-04-30T13:11:57;27.03;30.37
75170;SHT31;63749;49.186;9.222;2023-04-30T13:14:23;27.46;29.64
75170;SHT31;63749;49.186;9.222;2023-04-30T13:16:48;26.83;29.71
75170;SHT31;63749;49.186;9.222;2023-04-30T13:19:14;27.96;29.35
75170;SHT31;63749;49.186;9.222;2023-04-30T13:21:40;27.97;27.28
75170;SHT31;63749;49.186;9.222;2023-04-30T13:24:05;28.11;28.51
75170;SHT31;63749;49.186;9.222;2023-04-30T13:26:31;28.17;28.17
75170;SHT31;63749;49.186;9.222;2023-04-30T13:28:56;28.60;27.12
75170;SHT31;63749;49.186;9.222;2023-04-30T13:31:21;29.37;27.29
75170;SHT31;63749;49.186;9.222;2023-04-30T13:33:47;28.34;27.39
75170;SHT31;63749;49.186;9.222;2023-04-30T13:36:13;26.45;29.39
75170;SHT31;63749;49.186;9.222;2023-04-30T13:38:39;26.82;29.21
75170;SHT31;63749;49.186;9.222;2023-04-30T13:41:05;25.23;31.08
75170;SHT31;63749;49.186;9.222;2023-04-30T13:43:31;24.10;32.76
75170;SHT31;63749;49.186;9.222;2023-04-30T13:45:56;24.13;33.54
75170;SHT31;63749;49.186;9.222;2023-04-30T13:48:23;26.21;30.77
75170;SHT31;63749;49.186;9.222;2023-04-30T13:50:50;26.56;30.49
75170;SHT31;63749;49.186;9.222;2023-04-30T13:53:16;24.82;32.59
75170;SHT31;63749;49.186;9.222;2023-04-30T13:55:41;25.54;31.58
75170;SHT31;63749;49.186;9.222;2023-04-30T13:58:06;25.67;32.16
75170;SHT31;63749;49.186;9.222;2023-04-30T14:00:32;26.06;31.20
75170;SHT31;63749;49.186;9.222;2023-04-30T14:02:57;27.18;28.77
75170;SHT31;63749;49.186;9.222;2023-04-30T14:05:22;27.28;29.10
75170;SHT31;63749;49.186;9.222;2023-04-30T14:07:48;27.15;29.06
75170;SHT31;63749;49.186;9.222;2023-04-30T14:10:13;25.80;30.48
75170;SHT31;63749;49.186;9.222;2023-04-30T14:12:38;26.19;29.86
75170;SHT31;63749;49.186;9.222;2023-04-30T14:15:04;27.55;29.48
75170;SHT31;63749;49.186;9.222;2023-04-30T14:17:30;27.25;29.28
75170;SHT31;63749;49.186;9.222;2023-04-30T14:19:56;25.92;31.48
75170;SHT31;63749;49.186;9.222;2023-04-30T14:22:21;25.28;32.21
75170;SHT31;63749;49.186;9.222;2023-04-30T14:24:48;24.49;32.82
75170;SHT31;63749;49.186;9.222;2023-04-30T14:27:14;23.59;33.91
75170;SHT31;63749;49.186;9.222;2023-04-30T14:29:39;22.87;34.39
75170;SHT31;63749;49.186;9.222;2023-04-30T14:32:05;23.56;33.00
75170;SHT31;63749;49.186;9.222;2023-04-30T14:34:31;22.87;34.70
75170;SHT31;63749;49.186;9.222;2023-04-30T14:36:57;23.29;34.92
75170;SHT31;63749;49.186;9.222;2023-04-30T14:39:24;24.03;33.83
75170;SHT31;63749;49.186;9.222;2023-04-30T14:41:51;24.80;31.55
75170;SHT31;63749;49.186;9.222;2023-04-30T14:44:16;25.73;31.51
75170;SHT31;63749;49.186;9.222;2023-04-30T14:46:42;25.80;30.00
75170;SHT31;63749;49.186;9.222;2023-04-30T14:49:07;24.99;31.54
75170;SHT31;63749;49.186;9.222;2023-04-30T14:51:32;24.59;33.14
75170;SHT31;63749;49.186;9.222;2023-04-30T14:53:59;25.24;31.71
75170;SHT31;63749;49.186;9.222;2023-04-30T14:56:25;25.06;30.14
75170;SHT31;63749;49.186;9.222;2023-04-30T14:58:50;24.55;32.09
75170;SHT31;63749;49.186;9.222;2023-04-30T15:01:16;23.81;33.70
75170;SHT31;63749;49.186;9.222;2023-04-30T15:03:41;23.43;34.06
75170;SHT31;63749;49.186;9.222;2023-04-30T15:06:06;22.98;33.23
75170;SHT31;63749;49.186;9.222;2023-04-30T15:08:32;23.10;35.07
75170;SHT31;63749;49.186;9.222;2023-04-30T15:10:58;22.74;35.07
75170;SHT31;63749;49.186;9.222;2023-04-30T15:13:23;24.18;32.96
75170;SHT31;63749;49.186;9.222;2023-04-30T15:15:49;24.68;32.40
75170;SHT31;63749;49.186;9.222;2023-04-30T15:18:14;24.45;31.54
75170;SHT31;63749;49.186;9.222;2023-04-30T15:20:40;24.71;32.38
75170;SHT31;63749;49.186;9.222;2023-04-30T15:23:05;24.21;32.52
75170;SHT31;63749;49.186;9.222;2023-04-30T15:25:30;23.53;33.34
75170;SHT31;63749;49.186;9.222;2023-04-30T15:27:56;23.81;32.48
75170;SHT31;63749;49.186;9.222;2023-04-30T15:30:22;24.32;32.12
75170;SHT31;63749;49.186;9.222;2023-04-30T15:32:48;25.19;31.33
75170;SHT31;63749;49.186;9.222;2023-04-30T15:35:13;24.47;32.03
75170;SHT31;63749;49.186;9.222;2023-04-30T15:37:39;24.59;32.34
75170;SHT31;63749;49.186;9.222;2023-04-30T15:40:04;25.20;31.03
75170;SHT31;63749;49.186;9.222;2023-04-30T15:42:30;24.61;31.71
75170;SHT31;63749;49.186;9.222;2023-04-30T15:44:57;24.93;31.35
75170;SHT31;63749;49.186;9.222;2023-04-30T15:47:23;25.30;30.84